Primm, NV

7:50 PM PST on December 24, 2014 (GMT -0800)
MC Lazy D | Change Station
CLOSE
Current Station
Personal Weather Station
Location: Sandy Valley, NV
Elevation: 2703 ft
Nearby Weather Stations
Active Advisory: Wind Advisory

Elev 2703 ft 35.84 °N, 115.65 °W | Updated 22 seconds ago

Partly Cloudy
Partly Cloudy
50.0 °F
Feels Like 48 °F
N
6.3
Wind Variable Wind from SE

Today
High -- | Low -- °F
--% Chance of Precip.
Yesterday
High -- | Low -- °F
Precip. -- in
6:50 AM 4:34 PM
Waxing Crescent, 13% visible
Pressure 29.81 in
Visibility 10.0 miles
Clouds Clear
Windchill 48 °F
Dew Point 27 °F
Humidity 41%
Rainfall 0.00 in
Snow Depth Not available.
UV 0 out of 12
Pollen 2.20 out of 12
Air Quality Not available.
Flu Activity Not available.
METAR KHND 250256Z 14003KT 10SM CLR 05/M05 A2977 RMK AO2 SLP092 T00501050 56043

More Conditions Fewer Conditions

Pressure 29.81 in
Visibility 10.0 miles
Clouds Clear
Windchill 48 °F
Dew Point 27 °F
Humidity 41%
Rainfall 0.00 in
Snow Depth Not available.
UV 0 out of 12
Pollen 2.20 out of 12
Air Quality Not available.
Flu Activity Not available.
METAR KHND 250256Z 14003KT 10SM CLR 05/M05 A2977 RMK AO2 SLP092 T00501050 56043

More Conditions Fewer Conditions

10-Day Weather Forecast

Almanac

Astronomy

Dec. 24, 2014 Rise Set
Actual Time
Civil Twilight
Nautical Twilight
Astronomical Twilight
Moon
Length of Visible Light
Length of Day
Tomorrow will be .
, % of the Moon is Illuminated

Today's Extremes

State Highs State Lows

Community

WunderPhotos

Upload Photos

1,780,225 photos uploaded!

WunderBlogs® & News

Nearby

Air Quality

  Air Quality AQ Index Pollutant
Not available.

Snow Depth

Station Depth Elevation

Earthquake Activity

City Distance Mag. Time & Date
Minimum magnitude displayed is 2.5.

Coastal Water Temperatures

Place Temperature

Nearby Weather Stations